ЗЦ Санкт-Петербург

ЗЦ Санкт-Петербург

 

Зональный Центр Единой Системы Организации Воздушного Движения (ЗЦ ЕС ОрВД) Санкт-Петербург является структурным подразделением VATRUS.

В зону ответственности центра в сети VATSIM входит воздушное пространство над территориями Ленинградской, Новгородской, Псковской, Вологодской области, Мурманской, Архангельской областями, а так же Республики Карелия и Коми, Ненецкого АО.

Лого ЗЦ Санкт-Петербург
Руководитель региона

Alexey Kaznakov

Контакты

Инструкторы региона
Akhmadjon Saidov (Instructor)
Alexandr Vaganov * (Controller)
Alexey Kaznakov (Instructor)
Alexey Zimin (Instructor)
Ekaterina Romanova * (Controller)
Nikita Assorov (Instructor)
Stanley Yorke * (Controller)
Vadim Drachev * (Controller)
Yury Koryagin (Instructor)
Включает в себя

РПИ Архангельск
РПИ Калининград
РПИ Мурманск
РПИ Санкт-Петербург
РПИ Сыктывкар

Диспетчеры региона

Диспетчер Рейтинг Допуски *
Akhmadjon Saidov Instructor ULAA_CTR, UMKK_CTR, ULMM_CTR, ULLL_CTR, ULLL_CTR, UUYY_CTR
Akmal Idrissov Senior Student ULLL_CTR *, ULLL_1_APP, ULLL_APP, ULLL_2_APP
Aleksandr Manko Senior Student ULLL_CTR *, ULLL_1_APP, ULLL_APP, ULLL_2_APP
Alexandr Vaganov Controller ULLL_CTR
Alexey Zimin Instructor ULAA_CTR, UMKK_CTR, ULMM_CTR, ULLL_CTR, UUYY_CTR
Ekaterina Romanova Controller ULLL_CTR, ULLL_CTR, ULLL_CTR *
Maxim Demidov Controller ULLL_CTR
Mihail Kolesnik Controller ULLL_CTR
Nikita Assorov Instructor ULAA_CTR, UMKK_CTR, ULMM_CTR, UUYY_CTR
Oleg Fedorinov Controller ULLL_CTR
Serafim Bedershtet Controller ULLL_CTR
Stanley Yorke Controller ULLL_CTR
Vadim Drachev Controller ULLL_CTR
Yan Stetsenko Senior Student ULLL_CTR *
Aleksandr Mirtov Student ULLI_GND
Alexander Loginov Student 2 ULLI_R_APP*
Alexandr Sosnovsky Student ULLI_GND, ULLI_3_TWR*, ULLI_TWR*, ULLI_2_TWR*, ULLI_1_TWR*
Andrey Tarasov Student 2 ULLI_3_TWR, ULLI_TWR, ULLI_2_TWR, ULLI_1_TWR
Andrey Volanskiy Student 2 ULLI_1_TWR, ULLI_3_TWR, ULLI_TWR, ULLI_2_TWR
Arseny Sitnikov Student 2 ULLI_2_TWR, ULLI_1_TWR, ULLI_3_TWR, ULLI_R_APP*, ULLI_TWR
Artem Badalov Senior Student ULLL_2_APP*, ULLI_3_TWR, ULLI_TWR, ULLL_1_APP*, ULLI_2_TWR, ULLI_1_TWR, ULLL_APP*
Daniil Kayruk Student 2 ULLI_3_TWR, ULLI_TWR, ULLI_2_TWR, ULLI_1_TWR
David Markarian Student 2 ULLI_1_TWR, ULLI_3_TWR, ULLI_TWR, ULLI_2_TWR
Denis Makosov Senior Student ULLI_1_TWR, ULLI_3_TWR, ULLI_TWR, ULLI_2_TWR
Dmitrii Ermakov Student 2 ULLI_3_TWR*, ULLI_TWR*, ULLI_2_TWR*, ULLI_1_TWR*
Dmitry Bugaichuk Student 2 ULLI_2_TWR, ULLL_1_APP*, ULLI_1_TWR, ULLL_APP*, ULLI_3_TWR, ULLI_TWR, ULLL_2_APP*
Grigoriy Novikov Student ULLI_GND
Johan Nasstrom Student 2 ULLI_2_TWR, ULLI_1_TWR, ULLI_3_TWR, ULLI_TWR
Maks Moldenhauer Student ULLI_GND
Mikhail Ilyushchenko Student 2 ULLI_GND
Nikita Voytko Senior Student ULLL_1_APP, ULLL_APP, ULLL_2_APP
Oleg Alov Student 2 ULLL_2_APP*, ULLI_1_TWR, ULLI_3_TWR, ULLL_1_APP*, ULLI_TWR, ULLI_2_TWR, ULLL_APP*
Pavel Romanov Student ULLI_GND
Robert Farber Controller ULLI_3_TWR, ULLI_TWR, ULLI_2_TWR, ULLI_1_TWR
Sasha Klyucharev Student 2 ULLI_3_TWR, ULLI_TWR, ULLI_2_TWR, ULLI_1_TWR
Sofya Belyaeva Student 2 ULLI_1_TWR, ULLI_3_TWR, ULLI_TWR, ULLI_2_TWR
Vadim Kildishov Student ULLI_GND
Vitalii Gerasimov Student ULLI_GND
Yury Pushkaryov Student 2 ULLI_2_TWR, ULLL_2_APP*, ULLI_1_TWR, ULLL_1_APP*, ULLI_3_TWR, ULLI_TWR, ULLL_APP*

Аэропорты региона

ICAO Город Название Погода
ULLI Санкт-Петербург Пулково ULLI 020100Z VRB01MPS CAVOK 18/13 Q1021 R10R/090060 NOSIG
XLLV
ULAA Архангельск Архангельск ULAA 020100Z VRB01MPS 9999 BKN015 11/10 Q1022 R08/CLRD70 NOSIG RMK QFE765/1020
UMKK Калининград Калининград UMKK 020100Z 12004MPS 100V160 CAVOK 19/19 Q1016 R24/290095 NOSIG RMK QFE760/1014
ULKK Котлас Котлас
ULMM Мурманск Мурманск ULMM 020100Z 13001MPS CAVOK 15/12 Q1021 R13/090070 NOSIG RMK QFE759
ULAM Нарьян-Мар Нарьян-Мар
ULPB Петрозаводск Бесовец ULPB 020100Z AUTO 00000MPS 9999 // NSC 16/15 Q1021 RMK QFE762/1016
UUYY Сыктывкар Сыктывкар UUYY 020100Z 35003MPS 320V030 CAVOK 14/08 Q1015 R36/61D NOSIG RMK QFE752/1003
ULWC Череповец Череповец ULWC 012100Z 00000MPS 9999 MIFG NSC 10/10 Q1022 R03/010063 NOSIG RMK QFE757/1009